createdAt,value
2023-01-19T07:58:34.649Z,-1.57
2023-01-19T08:01:01.292Z,-1.61
2023-01-19T08:03:27.917Z,-1.66
2023-01-19T08:05:54.665Z,-1.68
2023-01-19T08:08:21.463Z,-1.66
2023-01-19T08:10:51.473Z,-1.60
2023-01-19T08:13:18.688Z,-1.64
2023-01-19T08:15:45.242Z,-1.58
2023-01-19T08:18:11.977Z,-1.61
2023-01-19T08:20:38.492Z,-1.60
2023-01-19T08:23:05.580Z,-1.56
2023-01-19T08:25:33.186Z,-1.46
2023-01-19T08:27:59.822Z,-1.43
2023-01-19T08:30:26.999Z,-1.37
2023-01-19T08:33:08.269Z,-1.35
2023-01-19T08:35:36.926Z,-1.35
2023-01-19T08:38:04.132Z,-1.32
2023-01-19T08:40:31.229Z,-1.34
2023-01-19T08:43:01.124Z,-1.27
2023-01-19T08:45:29.631Z,-1.24
2023-01-19T08:47:57.422Z,-1.14
2023-01-19T08:50:23.901Z,-1.05
2023-01-19T08:52:50.403Z,-1.04
2023-01-19T08:55:16.986Z,-1.02
2023-01-19T08:57:43.525Z,-1.03
2023-01-19T09:00:11.209Z,-0.96
2023-01-19T09:02:37.803Z,-0.92
2023-01-19T09:05:07.257Z,-0.85
2023-01-19T09:07:35.540Z,-0.88
2023-01-19T09:10:02.547Z,-0.82
2023-01-19T09:12:29.229Z,-0.80
2023-01-19T09:14:55.713Z,-0.85
2023-01-19T09:17:22.253Z,-0.82
2023-01-19T09:19:49.082Z,-0.79
2023-01-19T09:22:15.677Z,-0.80
2023-01-19T09:24:42.166Z,-0.76
2023-01-19T09:27:08.648Z,-0.73
2023-01-19T09:29:36.219Z,-0.77
2023-01-19T09:32:02.790Z,-0.78
2023-01-19T09:34:29.731Z,-0.77
2023-01-19T09:36:56.211Z,-0.83
2023-01-19T09:39:22.743Z,-0.75
2023-01-19T09:41:52.119Z,-0.81
2023-01-19T09:44:32.456Z,-0.81
2023-01-19T09:46:58.906Z,-0.75
2023-01-19T09:49:32.815Z,-0.82
2023-01-19T09:51:59.377Z,-0.78
2023-01-19T09:54:30.191Z,-0.83
2023-01-19T09:56:56.699Z,-0.84
2023-01-19T09:59:24.722Z,-0.77
2023-01-19T10:02:00.272Z,-0.73
2023-01-19T10:04:27.929Z,-0.76
2023-01-19T10:07:09.986Z,-0.73
2023-01-19T10:09:46.665Z,-0.74
2023-01-19T10:12:21.526Z,-0.69
2023-01-19T10:14:56.723Z,-0.64
2023-01-19T10:17:26.771Z,-0.63
2023-01-19T10:19:54.018Z,-0.55
2023-01-19T10:22:22.245Z,-0.47
2023-01-19T10:24:48.997Z,-0.50
2023-01-19T10:27:19.117Z,-0.48
2023-01-19T10:29:45.709Z,-0.55
2023-01-19T10:32:31.083Z,-0.52
2023-01-19T10:34:59.519Z,-0.57
2023-01-19T10:37:26.087Z,-0.56
2023-01-19T10:39:53.188Z,-0.49
2023-01-19T10:42:19.858Z,-0.51
2023-01-19T10:44:46.489Z,-0.63
2023-01-19T10:47:16.983Z,-0.57
2023-01-19T10:49:44.085Z,-0.58
2023-01-19T10:52:19.833Z,-0.57
2023-01-19T10:54:48.515Z,-0.60
2023-01-19T10:57:21.349Z,-0.62
2023-01-19T10:59:50.776Z,-0.62
2023-01-19T11:02:21.876Z,-0.61
2023-01-19T11:04:50.241Z,-0.50
2023-01-19T11:07:19.901Z,-0.35
2023-01-19T11:09:49.634Z,-0.17
2023-01-19T11:12:17.237Z,0.02
2023-01-19T11:14:43.715Z,0.01
2023-01-19T11:17:16.996Z,-0.11
2023-01-19T11:19:43.519Z,-0.16
2023-01-19T11:22:11.633Z,-0.03
2023-01-19T11:24:38.595Z,0.23
2023-01-19T11:27:05.094Z,0.34
2023-01-19T11:29:32.052Z,0.22
2023-01-19T11:32:10.311Z,0.11
2023-01-19T11:34:38.716Z,0.06
2023-01-19T11:37:28.651Z,0.00
2023-01-19T11:39:56.369Z,0.11
2023-01-19T11:42:23.014Z,0.15
2023-01-19T11:44:56.163Z,0.03
2023-01-19T11:47:34.373Z,-0.07
2023-01-19T11:50:11.935Z,-0.03
2023-01-19T11:53:08.329Z,0.13
2023-01-19T11:55:39.966Z,0.33
2023-01-19T11:58:06.558Z,0.54
2023-01-19T12:00:37.645Z,0.41
2023-01-19T12:03:07.306Z,0.33
2023-01-19T12:05:34.501Z,0.06
2023-01-19T12:08:04.112Z,0.01
2023-01-19T12:10:33.629Z,0.07
2023-01-19T12:13:00.174Z,0.40
2023-01-19T12:15:30.389Z,0.55
2023-01-19T12:21:18.798Z,0.34
2023-01-19T12:23:51.337Z,-0.03
2023-01-19T12:26:27.770Z,-0.06
2023-01-19T12:28:55.779Z,-0.02
2023-01-19T12:31:22.602Z,0.01
2023-01-19T12:33:49.387Z,0.06
2023-01-19T12:36:35.616Z,0.31
2023-01-19T12:39:02.751Z,0.52
2023-01-19T12:41:32.475Z,0.50
2023-01-19T12:44:11.379Z,0.46
2023-01-19T12:46:47.112Z,0.44
2023-01-19T12:49:16.819Z,0.37
2023-01-19T12:51:43.392Z,0.32
2023-01-19T12:54:16.682Z,0.51
2023-01-19T12:56:43.313Z,0.69
2023-01-19T12:59:14.342Z,0.74
2023-01-19T13:01:40.950Z,0.68
2023-01-19T13:04:27.440Z,0.44
2023-01-19T13:06:54.255Z,0.28
2023-01-19T13:09:30.733Z,0.40
2023-01-19T13:12:15.822Z,0.46
2023-01-19T13:14:42.940Z,0.43
2023-01-19T13:17:21.568Z,0.42
2023-01-19T13:19:49.670Z,0.36
2023-01-19T13:22:35.034Z,0.21
2023-01-19T13:25:12.012Z,0.19
2023-01-19T13:27:38.605Z,0.18
2023-01-19T13:30:12.432Z,0.17
2023-01-19T13:32:40.637Z,0.06
2023-01-19T13:35:12.374Z,0.11
2023-01-19T13:37:39.752Z,0.14
2023-01-19T13:40:06.698Z,0.10
2023-01-19T13:42:36.837Z,0.18
2023-01-19T13:45:04.611Z,0.30
2023-01-19T13:47:39.311Z,0.38
2023-01-19T13:50:06.285Z,0.51
2023-01-19T13:52:32.832Z,0.40
2023-01-19T13:55:04.327Z,0.25
2023-01-19T13:57:32.249Z,0.10
2023-01-19T14:00:08.530Z,-0.01
2023-01-19T14:02:35.304Z,-0.04
2023-01-19T14:05:22.197Z,-0.11
2023-01-19T14:07:48.960Z,-0.15
2023-01-19T14:10:19.356Z,-0.26
2023-01-19T14:12:58.925Z,-0.17
2023-01-19T14:15:26.131Z,-0.11
2023-01-19T14:18:12.405Z,-0.04
2023-01-19T14:20:39.083Z,-0.11
2023-01-19T14:23:05.946Z,-0.12
2023-01-19T14:25:33.275Z,-0.12
2023-01-19T14:28:18.699Z,-0.12
2023-01-19T14:30:58.994Z,-0.08
2023-01-19T14:33:40.865Z,-0.03
2023-01-19T14:36:11.277Z,0.06
2023-01-19T14:38:39.525Z,0.15
2023-01-19T14:41:06.409Z,0.20
2023-01-19T14:43:32.937Z,0.20
2023-01-19T14:45:59.479Z,0.24
2023-01-19T14:48:29.349Z,0.20
2023-01-19T14:51:03.614Z,0.16
2023-01-19T14:53:33.887Z,0.05
2023-01-19T14:56:05.079Z,-0.07
2023-01-19T14:58:32.764Z,-0.07
2023-01-19T15:00:59.394Z,-0.11
2023-01-19T15:03:34.994Z,-0.10
2023-01-19T15:06:19.313Z,-0.09
2023-01-19T15:08:46.247Z,-0.07
2023-01-19T15:11:21.375Z,-0.14
2023-01-19T15:13:47.894Z,-0.12
2023-01-19T15:16:14.432Z,-0.08
2023-01-19T15:18:41.769Z,-0.17
2023-01-19T15:21:15.379Z,-0.15
2023-01-19T15:23:41.956Z,-0.25
2023-01-19T15:26:10.508Z,-0.39
2023-01-19T15:28:37.096Z,-0.52
2023-01-19T15:31:03.623Z,-0.56
2023-01-19T15:33:30.681Z,-0.52
2023-01-19T15:35:57.298Z,-0.62
2023-01-19T15:38:24.008Z,-0.65
2023-01-19T15:40:51.636Z,-0.66
2023-01-19T15:43:18.545Z,-0.69
2023-01-19T15:45:48.073Z,-0.69
2023-01-19T15:48:14.803Z,-0.73
2023-01-19T15:50:42.366Z,-0.73
2023-01-19T15:53:16.324Z,-0.71
2023-01-19T15:55:43.054Z,-0.70
2023-01-19T15:58:09.643Z,-0.64
2023-01-19T16:00:36.561Z,-0.69
2023-01-19T16:03:03.652Z,-0.72
2023-01-19T16:05:41.826Z,-0.69
2023-01-19T16:08:09.168Z,-0.76
2023-01-19T16:10:35.823Z,-0.77
2023-01-19T16:13:03.814Z,-0.77
2023-01-19T16:15:30.331Z,-0.79
2023-01-19T16:17:56.868Z,-0.78
2023-01-19T16:20:23.391Z,-0.76
2023-01-19T16:22:49.889Z,-0.78
2023-01-19T16:25:16.582Z,-0.81
2023-01-19T16:27:43.365Z,-0.80
2023-01-19T16:30:12.953Z,-0.86
2023-01-19T16:32:39.698Z,-0.89
2023-01-19T16:35:06.549Z,-0.92
2023-01-19T16:37:33.245Z,-0.94
2023-01-19T16:39:59.837Z,-0.90
2023-01-19T16:42:26.465Z,-0.89
2023-01-19T16:44:54.698Z,-0.90
2023-01-19T16:47:21.363Z,-0.95
2023-01-19T16:49:47.888Z,-0.95
2023-01-19T16:52:14.575Z,-0.93
2023-01-19T16:54:41.816Z,-0.86
2023-01-19T16:57:08.457Z,-0.78
2023-01-19T16:59:35.295Z,-0.84
2023-01-19T17:02:02.088Z,-0.83
2023-01-19T17:04:29.603Z,-0.85
2023-01-19T17:06:56.272Z,-0.88
2023-01-19T17:09:22.901Z,-0.95
2023-01-19T17:11:49.595Z,-0.97
2023-01-19T17:14:17.565Z,-0.99
2023-01-19T17:16:44.336Z,-0.95
2023-01-19T17:19:13.018Z,-0.92
2023-01-19T17:21:39.578Z,-0.94
2023-01-19T17:24:06.365Z,-0.97
2023-01-19T17:26:32.895Z,-1.00
2023-01-19T17:29:03.307Z,-0.98
2023-01-19T17:31:30.682Z,-1.00
2023-01-19T17:33:57.780Z,-0.96
2023-01-19T17:36:25.393Z,-0.99
2023-01-19T17:38:52.967Z,-1.10
2023-01-19T17:41:20.702Z,-1.24
2023-01-19T17:43:47.433Z,-1.30
2023-01-19T17:46:14.110Z,-1.20
2023-01-19T17:48:40.834Z,-1.19
2023-01-19T17:51:11.392Z,-1.12
2023-01-19T17:53:38.655Z,-1.11
2023-01-19T17:56:05.884Z,-1.11
2023-01-19T17:58:32.596Z,-1.11
2023-01-19T18:00:59.436Z,-1.14
2023-01-19T18:03:26.135Z,-1.14
2023-01-19T18:05:53.276Z,-1.14
2023-01-19T18:08:19.904Z,-1.16
2023-01-19T18:10:53.617Z,-1.12
2023-01-19T18:13:20.301Z,-1.12
2023-01-19T18:15:46.962Z,-1.13
2023-01-19T18:18:13.580Z,-1.11
2023-01-19T18:20:40.828Z,-1.00
2023-01-19T18:23:07.520Z,-0.98
2023-01-19T18:25:34.122Z,-0.96
2023-01-19T18:28:00.839Z,-0.95
2023-01-19T18:30:27.449Z,-0.89
2023-01-19T18:32:54.246Z,-0.93
2023-01-19T18:35:20.834Z,-0.99
2023-01-19T18:37:47.454Z,-0.98
2023-01-19T18:40:14.416Z,-1.03
2023-01-19T18:42:41.249Z,-1.00
2023-01-19T18:45:08.243Z,-1.00
2023-01-19T18:47:34.834Z,-1.02
2023-01-19T18:50:01.427Z,-1.00
2023-01-19T18:52:28.032Z,-1.03
2023-01-19T18:54:54.698Z,-0.99
2023-01-19T18:57:21.297Z,-0.97
2023-01-19T18:59:48.963Z,-0.97
2023-01-19T19:02:15.541Z,-0.98
2023-01-19T19:04:42.327Z,-0.98
2023-01-19T19:07:08.937Z,-0.98
2023-01-19T19:09:36.264Z,-0.99
2023-01-19T19:12:02.945Z,-1.04
2023-01-19T19:14:29.707Z,-0.99
2023-01-19T19:16:56.366Z,-1.02
2023-01-19T19:19:23.046Z,-1.04
2023-01-19T19:21:51.801Z,-1.01
2023-01-19T19:24:18.603Z,-1.08
2023-01-19T19:26:45.238Z,-1.03
2023-01-19T19:29:12.417Z,-1.02
2023-01-19T19:31:39.142Z,-0.96
2023-01-19T19:34:05.872Z,-0.99
2023-01-19T19:36:33.633Z,-1.06
2023-01-19T19:39:00.481Z,-1.03
2023-01-19T19:41:28.241Z,-1.04
2023-01-19T19:43:55.607Z,-1.13
2023-01-19T19:46:24.497Z,-1.20
2023-01-19T19:48:51.291Z,-1.27
2023-01-19T19:51:19.619Z,-1.32
2023-01-19T19:53:47.896Z,-1.32
2023-01-19T19:56:16.036Z,-1.31
2023-01-19T19:58:43.291Z,-1.31
2023-01-19T20:01:14.296Z,-1.32
2023-01-19T20:03:41.108Z,-1.26
2023-01-19T20:06:11.216Z,-1.26
2023-01-19T20:08:38.286Z,-1.28
2023-01-19T20:11:18.381Z,-1.23
2023-01-19T20:13:45.472Z,-1.19
2023-01-19T20:16:14.125Z,-1.18
2023-01-19T20:18:42.687Z,-1.21
2023-01-19T20:21:13.812Z,-1.25
2023-01-19T20:23:41.503Z,-1.28
2023-01-19T20:26:09.282Z,-1.30
2023-01-19T20:28:36.655Z,-1.31
2023-01-19T20:31:22.571Z,-1.32
2023-01-19T20:33:50.037Z,-1.27
2023-01-19T20:36:17.049Z,-1.30
2023-01-19T20:38:44.193Z,-1.25
2023-01-19T20:41:11.794Z,-1.24
2023-01-19T20:43:39.249Z,-1.24
2023-01-19T20:46:06.350Z,-1.18
2023-01-19T20:48:33.505Z,-1.20
2023-01-19T20:51:00.639Z,-1.17
2023-01-19T20:53:28.066Z,-1.22
2023-01-19T20:55:57.635Z,-1.19
2023-01-19T20:58:28.370Z,-1.25
2023-01-19T21:00:55.647Z,-1.27
2023-01-19T21:03:22.898Z,-1.22
2023-01-19T21:05:50.860Z,-1.25
2023-01-19T21:08:18.749Z,-1.24
2023-01-19T21:10:46.369Z,-1.25
2023-01-19T21:13:15.419Z,-1.25
2023-01-19T21:15:42.532Z,-1.26
2023-01-19T21:18:09.639Z,-1.27
2023-01-19T21:20:37.213Z,-1.30
2023-01-19T21:23:04.492Z,-1.28
2023-01-19T21:25:34.770Z,-1.31
2023-01-19T21:28:02.769Z,-1.35
2023-01-19T21:30:30.295Z,-1.35
2023-01-19T21:32:57.290Z,-1.36
2023-01-19T21:35:24.969Z,-1.44
2023-01-19T21:37:52.088Z,-1.47
2023-01-19T21:40:19.398Z,-1.49
2023-01-19T21:42:46.492Z,-1.46
2023-01-19T21:45:13.672Z,-1.45
2023-01-19T21:47:41.433Z,-1.54
2023-01-19T21:50:08.667Z,-1.64
2023-01-19T21:52:35.735Z,-1.77
2023-01-19T21:55:02.733Z,-1.80
2023-01-19T21:57:29.858Z,-1.81
2023-01-19T21:59:57.060Z,-1.79
2023-01-19T22:02:37.672Z,-1.77
2023-01-19T22:05:06.845Z,-1.76
2023-01-19T22:07:34.713Z,-1.73
2023-01-19T22:10:01.718Z,-1.74
2023-01-19T22:12:28.571Z,-1.73
2023-01-19T22:14:55.557Z,-1.70
2023-01-19T22:17:22.457Z,-1.68
2023-01-19T22:19:49.423Z,-1.67
2023-01-19T22:22:16.373Z,-1.69
2023-01-19T22:24:46.734Z,-1.69
2023-01-19T22:27:13.918Z,-1.67
2023-01-19T22:29:40.882Z,-1.60
2023-01-19T22:32:08.069Z,-1.59
2023-01-19T22:34:34.983Z,-1.59
2023-01-19T22:37:02.046Z,-1.58
2023-01-19T22:39:29.067Z,-1.56
2023-01-19T22:41:56.238Z,-1.57
2023-01-19T22:44:23.247Z,-1.56
2023-01-19T22:46:50.687Z,-1.58
2023-01-19T22:49:18.149Z,-1.58
2023-01-19T22:51:45.177Z,-1.56
2023-01-19T22:54:12.252Z,-1.54
2023-01-19T22:56:39.419Z,-1.53
2023-01-19T22:59:09.519Z,-1.52
2023-01-19T23:01:37.841Z,-1.48
2023-01-19T23:04:05.879Z,-1.53
2023-01-19T23:06:34.256Z,-1.50
2023-01-19T23:09:01.917Z,-1.44
2023-01-19T23:11:30.587Z,-1.40
2023-01-19T23:13:58.029Z,-1.40
2023-01-19T23:16:25.187Z,-1.46
2023-01-19T23:18:56.121Z,-1.61
2023-01-19T23:21:23.805Z,-1.75
2023-01-19T23:23:53.288Z,-1.87
2023-01-19T23:26:20.252Z,-2.05
2023-01-19T23:28:47.431Z,-2.29
2023-01-19T23:31:18.264Z,-2.44
2023-01-19T23:33:45.481Z,-2.51
2023-01-19T23:36:12.439Z,-2.61
2023-01-19T23:38:39.574Z,-2.80
2023-01-19T23:41:06.441Z,-2.83
2023-01-19T23:43:33.324Z,-2.72
2023-01-19T23:46:03.835Z,-2.60
2023-01-19T23:48:30.859Z,-2.56
2023-01-19T23:50:57.678Z,-2.50
2023-01-19T23:53:24.544Z,-2.44
2023-01-19T23:55:51.182Z,-2.40
2023-01-19T23:58:17.856Z,-2.46
